Time,TemperatureF,DewpointF,PressureIn,WindDirection,WindDirectionDegrees,WindSpeedMPH,WindSpeedGustMPH,Humidity,HourlyPrecipIn,Conditions,Clouds,dailyrainin,SoftwareType,DateUTC
2013-10-15 00:13:00,72.5,70.0,29.64,ESE,112,0.0,-999.0,92,-99.99,,,0.00,Acu-Link.com,2013-10-15 05:13:00,
2013-10-15 00:28:00,72.3,69.8,29.64,South,180,1.7,-999.0,92,-99.99,,,0.00,Acu-Link.com,2013-10-15 05:28:00,
2013-10-15 00:44:00,72.3,69.8,29.64,West,270,0.0,-999.0,92,-99.99,,,0.00,Acu-Link.com,2013-10-15 05:44:00,
2013-10-15 00:59:00,72.1,69.6,29.64,SW,225,1.7,-999.0,92,-99.99,,,0.00,Acu-Link.com,2013-10-15 05:59:00,
2013-10-15 01:14:00,72.1,69.6,29.64,SSE,157,2.2,-999.0,92,-99.99,,,0.00,Acu-Link.com,2013-10-15 06:14:00,
2013-10-15 01:29:00,72.1,69.6,29.64,SSE,157,3.2,-999.0,92,-99.99,,,0.00,Acu-Link.com,2013-10-15 06:29:00,
2013-10-15 01:45:00,72.5,70.0,29.64,South,180,3.2,-999.0,92,-99.99,,,0.00,Acu-Link.com,2013-10-15 06:45:00,
2013-10-15 02:00:00,72.5,70.0,29.64,WNW,292,1.7,-999.0,92,-99.99,,,0.00,Acu-Link.com,2013-10-15 07:00:00,
2013-10-15 02:15:00,72.7,69.9,29.63,South,180,2.7,-999.0,91,-99.99,,,0.00,Acu-Link.com,2013-10-15 07:15:00,
2013-10-15 02:31:00,72.7,69.9,29.62,NW,315,1.1,-999.0,91,-99.99,,,0.00,Acu-Link.com,2013-10-15 07:31:00,
2013-10-15 02:47:00,72.7,69.9,29.63,ESE,112,3.7,-999.0,91,-99.99,,,0.00,Acu-Link.com,2013-10-15 07:47:00,
2013-10-15 03:02:00,72.7,69.9,29.62,SSE,157,3.7,-999.0,91,-99.99,,,0.00,Acu-Link.com,2013-10-15 08:02:00,
2013-10-15 03:17:00,72.7,69.9,29.62,WSW,247,4.7,-999.0,91,-99.99,,,0.00,Acu-Link.com,2013-10-15 08:17:00,
2013-10-15 03:33:00,72.7,69.9,29.63,South,180,2.7,-999.0,91,-99.99,,,0.00,Acu-Link.com,2013-10-15 08:33:00,
2013-10-15 03:49:00,72.7,69.9,29.63,South,180,3.7,-999.0,91,-99.99,,,0.00,Acu-Link.com,2013-10-15 08:49:00,
2013-10-15 04:04:00,72.5,69.7,29.61,SSE,157,3.7,-999.0,91,-99.99,,,0.00,Acu-Link.com,2013-10-15 09:04:00,
2013-10-15 04:19:00,72.5,69.7,29.60,ESE,112,2.7,-999.0,91,-99.99,,,0.00,Acu-Link.com,2013-10-15 09:19:00,
2013-10-15 04:34:00,72.5,69.7,29.60,SSW,202,2.2,-999.0,91,-99.99,,,0.00,Acu-Link.com,2013-10-15 09:34:00,
2013-10-15 04:50:00,72.5,69.7,29.61,South,180,2.7,-999.0,91,-99.99,,,0.00,Acu-Link.com,2013-10-15 09:50:00,
2013-10-15 05:05:00,72.7,69.9,29.61,South,180,3.7,-999.0,91,-99.99,,,0.00,Acu-Link.com,2013-10-15 10:05:00,
2013-10-15 05:20:00,72.7,69.9,29.61,SSE,157,5.8,-999.0,91,-99.99,,,0.00,Acu-Link.com,2013-10-15 10:20:00,
2013-10-15 05:35:00,72.7,69.9,29.60,South,180,3.7,-999.0,91,-99.99,,,0.00,Acu-Link.com,2013-10-15 10:35:00,
2013-10-15 05:51:00,72.7,69.9,29.60,South,180,3.7,-999.0,91,-99.99,,,0.00,Acu-Link.com,2013-10-15 10:51:00,
2013-10-15 06:06:00,72.5,69.7,29.60,South,180,1.7,-999.0,91,-99.99,,,0.00,Acu-Link.com,2013-10-15 11:06:00,
2013-10-15 06:21:00,72.5,69.7,29.61,SSE,157,2.2,-999.0,91,-99.99,,,0.00,Acu-Link.com,2013-10-15 11:21:00,
2013-10-15 06:36:00,72.5,69.7,29.61,South,180,3.2,-999.0,91,-99.99,,,0.00,Acu-Link.com,2013-10-15 11:36:00,
2013-10-15 06:51:00,72.5,69.7,29.61,South,180,5.3,-999.0,91,-99.99,,,0.00,Acu-Link.com,2013-10-15 11:51:00,
2013-10-15 07:07:00,72.5,69.7,29.62,SSW,202,2.7,-999.0,91,-99.99,,,0.00,Acu-Link.com,2013-10-15 12:07:00,
2013-10-15 07:22:00,72.5,69.7,29.62,South,180,0.0,-999.0,91,-99.99,,,0.00,Acu-Link.com,2013-10-15 12:22:00,
2013-10-15 07:37:00,72.5,69.7,29.63,WSW,247,0.0,-999.0,91,-99.99,,,0.00,Acu-Link.com,2013-10-15 12:37:00,
2013-10-15 07:53:00,72.5,69.7,29.63,SSE,157,0.0,-999.0,91,-99.99,,,0.00,Acu-Link.com,2013-10-15 12:53:00,
2013-10-15 08:08:00,72.5,70.0,29.64,South,180,0.0,-999.0,92,-99.99,,,0.00,Acu-Link.com,2013-10-15 13:08:00,
2013-10-15 08:23:00,72.7,70.2,29.63,SSE,157,4.2,-999.0,92,-99.99,,,0.00,Acu-Link.com,2013-10-15 13:23:00,
2013-10-15 08:39:00,72.9,70.1,29.63,SSE,157,0.0,-999.0,91,-99.99,,,0.00,Acu-Link.com,2013-10-15 13:39:00,
2013-10-15 08:54:00,73.4,70.6,29.63,South,180,4.2,-999.0,91,-99.99,,,0.00,Acu-Link.com,2013-10-15 13:54:00,
2013-10-15 09:09:00,73.6,70.5,29.64,SSE,157,2.7,-999.0,90,-99.99,,,0.00,Acu-Link.com,2013-10-15 14:09:00,
2013-10-15 09:24:00,74.1,71.0,29.64,SSE,157,1.1,-999.0,90,-99.99,,,0.00,Acu-Link.com,2013-10-15 14:24:00,
2013-10-15 09:40:00,74.5,71.0,29.64,South,180,4.7,-999.0,89,-99.99,,,0.00,Acu-Link.com,2013-10-15 14:40:00,
2013-10-15 09:55:00,75.2,71.4,29.64,SW,225,0.0,-999.0,88,-99.99,,,0.00,Acu-Link.com,2013-10-15 14:55:00,
2013-10-15 10:10:00,75.6,71.8,29.65,WSW,247,1.7,-999.0,88,-99.99,,,0.00,Acu-Link.com,2013-10-15 15:10:00,
2013-10-15 10:25:00,75.7,71.5,29.66,East,90,0.0,-999.0,87,-99.99,,,0.00,Acu-Link.com,2013-10-15 15:25:00,
2013-10-15 10:40:00,75.4,71.3,29.66,SW,225,0.0,-999.0,87,-99.99,,,0.00,Acu-Link.com,2013-10-15 15:40:00,
2013-10-15 10:55:00,75.6,71.4,29.65,SSW,202,0.0,-999.0,87,-99.99,,,0.00,Acu-Link.com,2013-10-15 15:55:00,
2013-10-15 11:10:00,76.5,72.3,29.65,NW,315,0.0,-999.0,87,-99.99,,,0.00,Acu-Link.com,2013-10-15 16:10:00,
2013-10-15 11:26:00,76.8,73.3,29.64,NW,315,0.0,-999.0,89,-99.99,,,0.00,Acu-Link.com,2013-10-15 16:26:00,
2013-10-15 11:41:00,77.4,73.6,29.65,West,270,1.1,-999.0,88,-99.99,,,0.00,Acu-Link.com,2013-10-15 16:41:00,
2013-10-15 11:56:00,77.9,73.0,29.65,NE,45,6.3,-999.0,85,-99.99,,,0.00,Acu-Link.com,2013-10-15 16:56:00,
2013-10-15 12:11:00,70.3,66.2,29.66,NNW,337,10.4,-999.0,87,-99.99,,,0.00,Acu-Link.com,2013-10-15 17:11:00,
2013-10-15 12:26:00,69.4,65.7,29.65,NE,45,6.3,-999.0,88,-99.99,,,0.00,Acu-Link.com,2013-10-15 17:26:00,
2013-10-15 12:42:00,68.0,64.3,29.65,NE,45,14.0,-999.0,88,-99.99,,,0.00,Acu-Link.com,2013-10-15 17:42:00,
2013-10-15 12:57:00,67.3,63.9,29.66,NNE,22,2.2,-999.0,89,-99.99,,,0.00,Acu-Link.com,2013-10-15 17:57:00,
2013-10-15 13:13:00,66.6,63.6,29.65,NNE,22,9.9,-999.0,90,-99.99,,,0.00,Acu-Link.com,2013-10-15 18:13:00,
2013-10-15 13:28:00,66.2,63.2,29.65,NE,45,3.7,-999.0,90,-99.99,,,0.00,Acu-Link.com,2013-10-15 18:28:00,
2013-10-15 13:43:00,65.7,62.7,29.65,East,90,2.7,-999.0,90,-99.99,,,0.02,Acu-Link.com,2013-10-15 18:43:00,
2013-10-15 13:59:00,65.7,63.0,29.66,North,0,3.7,-999.0,91,-99.99,,,0.03,Acu-Link.com,2013-10-15 18:59:00,
2013-10-15 14:14:00,64.8,61.8,29.66,NNE,22,2.7,-999.0,90,-99.99,,,0.03,Acu-Link.com,2013-10-15 19:14:00,
2013-10-15 14:29:00,63.5,60.5,29.66,ENE,67,8.9,-999.0,90,-99.99,,,0.05,Acu-Link.com,2013-10-15 19:29:00,
2013-10-15 14:44:00,62.8,59.8,29.67,NNE,22,3.2,-999.0,90,-99.99,,,0.05,Acu-Link.com,2013-10-15 19:44:00,
2013-10-15 14:59:00,61.7,58.7,29.68,NE,45,8.9,-999.0,90,-99.99,,,0.05,Acu-Link.com,2013-10-15 19:59:00,
2013-10-15 15:15:00,61.2,58.5,29.69,North,0,8.9,-999.0,91,-99.99,,,0.05,Acu-Link.com,2013-10-15 20:15:00,
2013-10-15 15:30:00,60.6,58.0,29.69,NNW,337,5.3,-999.0,91,-99.99,,,0.06,Acu-Link.com,2013-10-15 20:30:00,
2013-10-15 15:45:00,59.7,57.1,29.68,NE,45,2.7,-999.0,91,-99.99,,,0.07,Acu-Link.com,2013-10-15 20:45:00,
2013-10-15 16:00:00,59.5,57.2,29.69,NE,45,5.8,-999.0,92,-99.99,,,0.09,Acu-Link.com,2013-10-15 21:00:00,
2013-10-15 16:15:00,59.5,57.2,29.68,North,0,5.8,-999.0,92,-99.99,,,0.10,Acu-Link.com,2013-10-15 21:15:00,
2013-10-15 16:31:00,59.2,56.9,29.69,NE,45,2.7,-999.0,92,-99.99,,,0.10,Acu-Link.com,2013-10-15 21:31:00,
2013-10-15 16:46:00,58.8,56.2,29.69,North,0,3.7,-999.0,91,-99.99,,,0.10,Acu-Link.com,2013-10-15 21:46:00,
2013-10-15 17:01:00,58.6,56.0,29.69,NNE,22,4.2,-999.0,91,-99.99,,,0.10,Acu-Link.com,2013-10-15 22:01:00,
2013-10-15 17:16:00,58.3,55.7,29.70,NW,315,2.7,-999.0,91,-99.99,,,0.10,Acu-Link.com,2013-10-15 22:16:00,
2013-10-15 17:32:00,57.7,55.1,29.71,NNE,22,4.2,-999.0,91,-99.99,,,0.10,Acu-Link.com,2013-10-15 22:32:00,
2013-10-15 17:47:00,57.0,54.7,29.70,NNE,22,7.3,-999.0,92,-99.99,,,0.14,Acu-Link.com,2013-10-15 22:47:00,
2013-10-15 18:02:00,56.7,54.7,29.70,West,270,4.7,-999.0,93,-99.99,,,0.19,Acu-Link.com,2013-10-15 23:02:00,
2013-10-15 18:17:00,56.7,54.7,29.70,NE,45,4.7,-999.0,93,-99.99,,,0.19,Acu-Link.com,2013-10-15 23:17:00,
2013-10-15 18:32:00,56.3,54.6,29.70,North,0,1.7,-999.0,94,-99.99,,,0.19,Acu-Link.com,2013-10-15 23:32:00,
2013-10-15 18:48:00,55.9,54.2,29.71,ENE,67,5.8,-999.0,94,-99.99,,,0.19,Acu-Link.com,2013-10-15 23:48:00,
2013-10-15 19:03:00,55.8,54.1,29.71,NNE,22,3.2,-999.0,94,-99.99,,,0.20,Acu-Link.com,2013-10-16 00:03:00,
2013-10-15 19:18:00,55.6,53.9,29.73,North,0,6.3,-999.0,94,-99.99,,,0.29,Acu-Link.com,2013-10-16 00:18:00,
2013-10-15 19:33:00,55.8,54.1,29.74,NNW,337,2.2,-999.0,94,-99.99,,,0.30,Acu-Link.com,2013-10-16 00:33:00,
2013-10-15 19:49:00,54.9,53.2,29.73,NE,45,4.7,-999.0,94,-99.99,,,0.37,Acu-Link.com,2013-10-16 00:49:00,
2013-10-15 20:04:00,54.9,53.2,29.75,NE,45,1.1,-999.0,94,-99.99,,,0.39,Acu-Link.com,2013-10-16 01:04:00,
2013-10-15 20:19:00,54.7,53.0,29.76,WSW,247,1.7,-999.0,94,-99.99,,,0.41,Acu-Link.com,2013-10-16 01:19:00,
2013-10-15 20:34:00,54.3,52.9,29.76,NE,45,1.1,-999.0,95,-99.99,,,0.47,Acu-Link.com,2013-10-16 01:34:00,
2013-10-15 20:50:00,54.3,52.9,29.77,NE,45,2.7,-999.0,95,-99.99,,,0.53,Acu-Link.com,2013-10-16 01:50:00,
2013-10-15 21:05:00,53.8,52.4,29.76,NE,45,5.3,-999.0,95,-99.99,,,0.61,Acu-Link.com,2013-10-16 02:05:00,
2013-10-15 21:20:00,53.8,52.4,29.76,NNE,22,4.2,-999.0,95,-99.99,,,0.67,Acu-Link.com,2013-10-16 02:20:00,
2013-10-15 21:35:00,53.8,52.4,29.77,NW,315,2.7,-999.0,95,-99.99,,,0.74,Acu-Link.com,2013-10-16 02:35:00,
2013-10-15 21:50:00,53.8,52.4,29.77,East,90,4.2,-999.0,95,-99.99,,,0.76,Acu-Link.com,2013-10-16 02:50:00,
2013-10-15 22:05:00,53.8,52.4,29.77,North,0,8.3,-999.0,95,-99.99,,,0.78,Acu-Link.com,2013-10-16 03:05:00,
2013-10-15 22:21:00,53.6,52.2,29.78,NE,45,5.8,-999.0,95,-99.99,,,0.80,Acu-Link.com,2013-10-16 03:21:00,
2013-10-15 22:36:00,53.6,52.2,29.79,ESE,112,0.0,-999.0,95,-99.99,,,0.84,Acu-Link.com,2013-10-16 03:36:00,
2013-10-15 22:51:00,53.6,52.2,29.79,SW,225,4.7,-999.0,95,-99.99,,,0.85,Acu-Link.com,2013-10-16 03:51:00,
2013-10-15 23:06:00,53.4,52.0,29.80,NE,45,4.2,-999.0,95,-99.99,,,0.87,Acu-Link.com,2013-10-16 04:06:00,
2013-10-15 23:22:00,53.4,52.0,29.79,NNE,22,2.7,-999.0,95,-99.99,,,0.89,Acu-Link.com,2013-10-16 04:22:00,
2013-10-15 23:37:00,53.2,51.8,29.77,NNE,22,2.7,-999.0,95,-99.99,,,0.95,Acu-Link.com,2013-10-16 04:37:00,
2013-10-15 23:52:00,53.2,51.8,29.76,NNE,22,7.3,-999.0,95,-99.99,,,0.97,Acu-Link.com,2013-10-16 04:52:00,